sensor_id;sensor_type;location;lat;lon;timestamp;P1;durP1;ratioP1;P2;durP2;ratioP2
66751;SDS011;53663;42.676;23.238;2022-07-29T00:01:33;9.30;;;7.18;;
66751;SDS011;53663;42.676;23.238;2022-07-29T00:03:59;8.32;;;6.55;;
66751;SDS011;53663;42.676;23.238;2022-07-29T00:06:24;9.77;;;7.60;;
66751;SDS011;53663;42.676;23.238;2022-07-29T00:08:50;10.45;;;7.55;;
66751;SDS011;53663;42.676;23.238;2022-07-29T00:11:15;8.95;;;6.85;;
66751;SDS011;53663;42.676;23.238;2022-07-29T00:13:41;10.65;;;7.50;;
66751;SDS011;53663;42.676;23.238;2022-07-29T00:16:06;11.40;;;6.65;;
66751;SDS011;53663;42.676;23.238;2022-07-29T00:18:32;9.32;;;7.18;;
66751;SDS011;53663;42.676;23.238;2022-07-29T00:20:57;11.15;;;6.25;;
66751;SDS011;53663;42.676;23.238;2022-07-29T00:23:23;10.15;;;6.90;;
66751;SDS011;53663;42.676;23.238;2022-07-29T00:25:48;12.18;;;7.20;;
66751;SDS011;53663;42.676;23.238;2022-07-29T00:28:14;13.52;;;8.23;;
66751;SDS011;53663;42.676;23.238;2022-07-29T00:30:39;8.88;;;6.43;;
66751;SDS011;53663;42.676;23.238;2022-07-29T00:33:08;12.68;;;6.85;;
66751;SDS011;53663;42.676;23.238;2022-07-29T00:35:34;13.15;;;7.28;;
66751;SDS011;53663;42.676;23.238;2022-07-29T00:38:08;10.18;;;6.85;;
66751;SDS011;53663;42.676;23.238;2022-07-29T00:40:35;13.15;;;7.40;;
66751;SDS011;53663;42.676;23.238;2022-07-29T00:43:00;15.50;;;7.68;;
66751;SDS011;53663;42.676;23.238;2022-07-29T00:45:27;11.68;;;7.45;;
66751;SDS011;53663;42.676;23.238;2022-07-29T00:47:52;13.27;;;7.47;;
66751;SDS011;53663;42.676;23.238;2022-07-29T00:50:18;12.13;;;7.07;;
66751;SDS011;53663;42.676;23.238;2022-07-29T00:52:44;13.35;;;7.43;;
66751;SDS011;53663;42.676;23.238;2022-07-29T00:55:13;13.82;;;7.63;;
66751;SDS011;53663;42.676;23.238;2022-07-29T00:57:41;12.70;;;7.22;;
66751;SDS011;53663;42.676;23.238;2022-07-29T01:00:08;11.80;;;6.97;;
66751;SDS011;53663;42.676;23.238;2022-07-29T01:02:36;12.40;;;7.32;;
66751;SDS011;53663;42.676;23.238;2022-07-29T01:05:02;11.85;;;7.28;;
66751;SDS011;53663;42.676;23.238;2022-07-29T01:07:30;13.95;;;7.82;;
66751;SDS011;53663;42.676;23.238;2022-07-29T01:09:58;14.93;;;7.43;;
66751;SDS011;53663;42.676;23.238;2022-07-29T01:12:25;10.13;;;7.00;;
66751;SDS011;53663;42.676;23.238;2022-07-29T01:14:54;12.95;;;7.72;;
66751;SDS011;53663;42.676;23.238;2022-07-29T01:17:22;12.45;;;7.22;;
66751;SDS011;53663;42.676;23.238;2022-07-29T01:22:27;18.52;;;7.80;;
66751;SDS011;53663;42.676;23.238;2022-07-29T01:30:25;16.15;;;7.47;;
66751;SDS011;53663;42.676;23.238;2022-07-29T01:33:10;12.75;;;7.72;;
66751;SDS011;53663;42.676;23.238;2022-07-29T01:35:58;11.05;;;7.68;;
66751;SDS011;53663;42.676;23.238;2022-07-29T01:38:29;13.00;;;7.72;;
66751;SDS011;53663;42.676;23.238;2022-07-29T01:41:14;13.00;;;7.65;;
66751;SDS011;53663;42.676;23.238;2022-07-29T01:43:53;11.23;;;7.60;;
66751;SDS011;53663;42.676;23.238;2022-07-29T01:46:33;11.10;;;7.68;;
66751;SDS011;53663;42.676;23.238;2022-07-29T01:49:06;15.48;;;7.75;;
66751;SDS011;53663;42.676;23.238;2022-07-29T01:54:14;12.85;;;7.88;;
66751;SDS011;53663;42.676;23.238;2022-07-29T01:56:45;12.13;;;8.10;;
66751;SDS011;53663;42.676;23.238;2022-07-29T01:59:14;12.80;;;7.75;;
66751;SDS011;53663;42.676;23.238;2022-07-29T02:01:41;10.10;;;7.53;;
66751;SDS011;53663;42.676;23.238;2022-07-29T02:04:10;10.52;;;7.70;;
66751;SDS011;53663;42.676;23.238;2022-07-29T02:06:37;10.80;;;7.50;;
66751;SDS011;53663;42.676;23.238;2022-07-29T02:09:05;12.50;;;7.93;;
66751;SDS011;53663;42.676;23.238;2022-07-29T02:11:33;16.77;;;7.68;;
66751;SDS011;53663;42.676;23.238;2022-07-29T02:14:00;13.40;;;7.90;;
66751;SDS011;53663;42.676;23.238;2022-07-29T02:16:28;16.50;;;8.32;;
66751;SDS011;53663;42.676;23.238;2022-07-29T02:18:56;10.20;;;7.53;;
66751;SDS011;53663;42.676;23.238;2022-07-29T02:21:25;12.05;;;8.07;;
66751;SDS011;53663;42.676;23.238;2022-07-29T02:23:53;12.40;;;7.80;;
66751;SDS011;53663;42.676;23.238;2022-07-29T02:26:20;13.45;;;7.70;;
66751;SDS011;53663;42.676;23.238;2022-07-29T02:28:49;16.70;;;8.88;;
66751;SDS011;53663;42.676;23.238;2022-07-29T02:31:18;11.70;;;8.18;;
66751;SDS011;53663;42.676;23.238;2022-07-29T02:33:49;10.55;;;7.93;;
66751;SDS011;53663;42.676;23.238;2022-07-29T02:36:16;11.32;;;7.63;;
66751;SDS011;53663;42.676;23.238;2022-07-29T02:38:42;10.95;;;7.65;;
66751;SDS011;53663;42.676;23.238;2022-07-29T02:41:23;12.00;;;7.85;;
66751;SDS011;53663;42.676;23.238;2022-07-29T02:43:54;10.38;;;7.68;;
66751;SDS011;53663;42.676;23.238;2022-07-29T02:46:25;12.45;;;7.97;;
66751;SDS011;53663;42.676;23.238;2022-07-29T02:48:56;10.43;;;7.53;;
66751;SDS011;53663;42.676;23.238;2022-07-29T02:51:27;10.60;;;7.35;;
66751;SDS011;53663;42.676;23.238;2022-07-29T02:54:06;17.10;;;7.85;;
66751;SDS011;53663;42.676;23.238;2022-07-29T02:56:34;9.07;;;7.18;;
66751;SDS011;53663;42.676;23.238;2022-07-29T02:59:01;12.50;;;7.50;;
66751;SDS011;53663;42.676;23.238;2022-07-29T03:01:30;11.13;;;8.10;;
66751;SDS011;53663;42.676;23.238;2022-07-29T03:03:57;11.48;;;7.70;;
66751;SDS011;53663;42.676;23.238;2022-07-29T03:06:26;13.00;;;7.57;;
66751;SDS011;53663;42.676;23.238;2022-07-29T03:08:54;12.18;;;7.97;;
66751;SDS011;53663;42.676;23.238;2022-07-29T03:11:20;9.57;;;8.27;;
66751;SDS011;53663;42.676;23.238;2022-07-29T03:13:46;13.13;;;8.55;;
66751;SDS011;53663;42.676;23.238;2022-07-29T03:16:13;11.75;;;7.88;;
66751;SDS011;53663;42.676;23.238;2022-07-29T03:18:40;13.00;;;8.07;;
66751;SDS011;53663;42.676;23.238;2022-07-29T03:21:06;11.32;;;7.88;;
66751;SDS011;53663;42.676;23.238;2022-07-29T03:23:33;8.82;;;7.53;;
66751;SDS011;53663;42.676;23.238;2022-07-29T03:25:58;12.10;;;8.45;;
66751;SDS011;53663;42.676;23.238;2022-07-29T03:28:24;11.00;;;7.63;;
66751;SDS011;53663;42.676;23.238;2022-07-29T03:30:49;16.95;;;8.30;;
66751;SDS011;53663;42.676;23.238;2022-07-29T03:33:15;16.42;;;8.65;;
66751;SDS011;53663;42.676;23.238;2022-07-29T03:35:40;12.27;;;7.90;;
66751;SDS011;53663;42.676;23.238;2022-07-29T03:38:06;18.08;;;8.77;;
66751;SDS011;53663;42.676;23.238;2022-07-29T03:40:40;12.23;;;7.78;;
66751;SDS011;53663;42.676;23.238;2022-07-29T03:43:11;12.88;;;8.23;;
66751;SDS011;53663;42.676;23.238;2022-07-29T03:45:41;17.10;;;8.95;;
66751;SDS011;53663;42.676;23.238;2022-07-29T03:48:10;13.68;;;8.35;;
66751;SDS011;53663;42.676;23.238;2022-07-29T03:50:39;13.23;;;8.75;;
66751;SDS011;53663;42.676;23.238;2022-07-29T03:53:05;11.82;;;8.63;;
66751;SDS011;53663;42.676;23.238;2022-07-29T03:55:32;13.05;;;8.32;;
66751;SDS011;53663;42.676;23.238;2022-07-29T03:58:02;12.02;;;8.35;;
66751;SDS011;53663;42.676;23.238;2022-07-29T04:00:28;13.40;;;8.48;;
66751;SDS011;53663;42.676;23.238;2022-07-29T04:02:56;15.05;;;9.07;;
66751;SDS011;53663;42.676;23.238;2022-07-29T04:05:22;16.25;;;8.50;;
66751;SDS011;53663;42.676;23.238;2022-07-29T04:07:48;10.52;;;8.05;;
66751;SDS011;53663;42.676;23.238;2022-07-29T04:10:14;15.73;;;9.38;;
66751;SDS011;53663;42.676;23.238;2022-07-29T04:12:44;12.90;;;8.80;;
66751;SDS011;53663;42.676;23.238;2022-07-29T04:15:10;20.83;;;9.18;;
66751;SDS011;53663;42.676;23.238;2022-07-29T04:17:35;23.10;;;9.95;;
66751;SDS011;53663;42.676;23.238;2022-07-29T04:20:01;20.50;;;9.40;;
66751;SDS011;53663;42.676;23.238;2022-07-29T04:22:27;20.13;;;9.82;;
66751;SDS011;53663;42.676;23.238;2022-07-29T04:24:53;15.35;;;9.20;;
66751;SDS011;53663;42.676;23.238;2022-07-29T04:27:18;19.88;;;9.73;;
66751;SDS011;53663;42.676;23.238;2022-07-29T04:29:44;13.10;;;9.70;;
66751;SDS011;53663;42.676;23.238;2022-07-29T04:32:09;12.77;;;9.13;;
66751;SDS011;53663;42.676;23.238;2022-07-29T04:34:35;17.65;;;10.02;;
66751;SDS011;53663;42.676;23.238;2022-07-29T04:37:00;16.63;;;10.77;;
66751;SDS011;53663;42.676;23.238;2022-07-29T04:39:26;13.50;;;10.15;;
66751;SDS011;53663;42.676;23.238;2022-07-29T04:41:51;15.88;;;9.32;;
66751;SDS011;53663;42.676;23.238;2022-07-29T04:44:17;13.20;;;9.95;;
66751;SDS011;53663;42.676;23.238;2022-07-29T04:46:42;14.73;;;9.77;;
66751;SDS011;53663;42.676;23.238;2022-07-29T04:49:08;12.57;;;9.73;;
66751;SDS011;53663;42.676;23.238;2022-07-29T04:51:34;16.55;;;9.60;;
66751;SDS011;53663;42.676;23.238;2022-07-29T04:53:59;14.60;;;9.32;;
66751;SDS011;53663;42.676;23.238;2022-07-29T04:56:25;13.02;;;8.70;;
66751;SDS011;53663;42.676;23.238;2022-07-29T04:58:51;10.70;;;8.40;;
66751;SDS011;53663;42.676;23.238;2022-07-29T05:01:17;16.60;;;8.90;;
66751;SDS011;53663;42.676;23.238;2022-07-29T05:03:43;13.35;;;8.73;;
66751;SDS011;53663;42.676;23.238;2022-07-29T05:06:10;15.60;;;9.45;;
66751;SDS011;53663;42.676;23.238;2022-07-29T05:08:35;11.13;;;8.52;;
66751;SDS011;53663;42.676;23.238;2022-07-29T05:11:01;18.52;;;9.65;;
66751;SDS011;53663;42.676;23.238;2022-07-29T05:13:27;15.18;;;9.65;;
66751;SDS011;53663;42.676;23.238;2022-07-29T05:15:54;20.08;;;9.48;;
66751;SDS011;53663;42.676;23.238;2022-07-29T05:18:19;20.73;;;10.25;;
66751;SDS011;53663;42.676;23.238;2022-07-29T05:20:45;18.58;;;9.23;;
66751;SDS011;53663;42.676;23.238;2022-07-29T05:23:11;15.40;;;8.85;;
66751;SDS011;53663;42.676;23.238;2022-07-29T05:25:37;15.65;;;9.63;;
66751;SDS011;53663;42.676;23.238;2022-07-29T05:28:04;15.95;;;8.73;;
66751;SDS011;53663;42.676;23.238;2022-07-29T05:30:29;21.20;;;9.35;;
66751;SDS011;53663;42.676;23.238;2022-07-29T05:32:55;14.55;;;7.38;;
66751;SDS011;53663;42.676;23.238;2022-07-29T05:35:20;12.60;;;8.50;;
66751;SDS011;53663;42.676;23.238;2022-07-29T05:37:46;10.48;;;7.50;;
66751;SDS011;53663;42.676;23.238;2022-07-29T05:40:11;13.85;;;7.53;;
66751;SDS011;53663;42.676;23.238;2022-07-29T05:42:37;15.10;;;8.95;;
66751;SDS011;53663;42.676;23.238;2022-07-29T05:45:03;11.77;;;7.90;;
66751;SDS011;53663;42.676;23.238;2022-07-29T05:47:29;14.65;;;8.05;;
66751;SDS011;53663;42.676;23.238;2022-07-29T05:49:54;14.43;;;7.60;;
66751;SDS011;53663;42.676;23.238;2022-07-29T05:52:20;10.00;;;7.03;;
66751;SDS011;53663;42.676;23.238;2022-07-29T05:54:46;15.25;;;7.20;;
66751;SDS011;53663;42.676;23.238;2022-07-29T05:57:16;15.43;;;7.63;;
66751;SDS011;53663;42.676;23.238;2022-07-29T05:59:42;14.77;;;8.10;;
66751;SDS011;53663;42.676;23.238;2022-07-29T06:02:07;11.88;;;8.05;;
66751;SDS011;53663;42.676;23.238;2022-07-29T06:04:33;16.38;;;8.30;;
66751;SDS011;53663;42.676;23.238;2022-07-29T06:06:59;10.25;;;7.22;;
66751;SDS011;53663;42.676;23.238;2022-07-29T06:09:24;12.50;;;7.32;;
66751;SDS011;53663;42.676;23.238;2022-07-29T06:11:51;14.68;;;7.60;;
66751;SDS011;53663;42.676;23.238;2022-07-29T06:14:17;20.08;;;8.13;;
66751;SDS011;53663;42.676;23.238;2022-07-29T06:16:43;13.10;;;7.95;;
66751;SDS011;53663;42.676;23.238;2022-07-29T06:19:09;15.43;;;8.82;;
66751;SDS011;53663;42.676;23.238;2022-07-29T06:21:34;16.50;;;8.02;;
66751;SDS011;53663;42.676;23.238;2022-07-29T06:24:00;13.45;;;8.52;;
66751;SDS011;53663;42.676;23.238;2022-07-29T06:26:25;20.77;;;9.25;;
66751;SDS011;53663;42.676;23.238;2022-07-29T06:28:51;20.73;;;9.48;;
66751;SDS011;53663;42.676;23.238;2022-07-29T06:31:16;26.63;;;9.80;;
66751;SDS011;53663;42.676;23.238;2022-07-29T06:33:42;16.15;;;9.73;;
66751;SDS011;53663;42.676;23.238;2022-07-29T06:36:07;17.35;;;10.80;;
66751;SDS011;53663;42.676;23.238;2022-07-29T06:38:33;16.20;;;9.05;;
66751;SDS011;53663;42.676;23.238;2022-07-29T06:40:59;17.50;;;8.95;;
66751;SDS011;53663;42.676;23.238;2022-07-29T06:43:26;11.50;;;8.38;;
66751;SDS011;53663;42.676;23.238;2022-07-29T06:45:54;22.33;;;8.07;;
66751;SDS011;53663;42.676;23.238;2022-07-29T06:48:19;13.27;;;8.00;;
66751;SDS011;53663;42.676;23.238;2022-07-29T06:50:45;15.00;;;7.72;;
66751;SDS011;53663;42.676;23.238;2022-07-29T06:53:10;9.10;;;6.78;;
66751;SDS011;53663;42.676;23.238;2022-07-29T06:55:36;15.15;;;7.05;;
66751;SDS011;53663;42.676;23.238;2022-07-29T06:58:02;16.23;;;9.90;;
66751;SDS011;53663;42.676;23.238;2022-07-29T07:00:28;11.65;;;5.82;;
66751;SDS011;53663;42.676;23.238;2022-07-29T07:02:53;13.05;;;5.28;;
66751;SDS011;53663;42.676;23.238;2022-07-29T07:05:19;10.27;;;4.90;;
66751;SDS011;53663;42.676;23.238;2022-07-29T07:07:44;9.32;;;4.53;;
66751;SDS011;53663;42.676;23.238;2022-07-29T07:10:10;7.25;;;4.25;;
66751;SDS011;53663;42.676;23.238;2022-07-29T07:12:35;7.57;;;4.15;;
66751;SDS011;53663;42.676;23.238;2022-07-29T07:15:01;7.00;;;4.07;;
66751;SDS011;53663;42.676;23.238;2022-07-29T07:17:27;5.45;;;4.40;;
66751;SDS011;53663;42.676;23.238;2022-07-29T07:19:52;12.55;;;4.80;;
66751;SDS011;53663;42.676;23.238;2022-07-29T07:22:18;10.52;;;4.32;;
66751;SDS011;53663;42.676;23.238;2022-07-29T07:24:43;7.13;;;4.53;;
66751;SDS011;53663;42.676;23.238;2022-07-29T07:27:09;12.30;;;4.40;;
66751;SDS011;53663;42.676;23.238;2022-07-29T07:29:34;9.68;;;4.78;;
66751;SDS011;53663;42.676;23.238;2022-07-29T07:32:00;6.30;;;4.43;;
66751;SDS011;53663;42.676;23.238;2022-07-29T07:34:26;7.50;;;5.10;;
66751;SDS011;53663;42.676;23.238;2022-07-29T07:36:52;10.38;;;4.93;;
66751;SDS011;53663;42.676;23.238;2022-07-29T07:39:18;8.88;;;4.78;;
66751;SDS011;53663;42.676;23.238;2022-07-29T07:41:43;8.00;;;4.45;;
66751;SDS011;53663;42.676;23.238;2022-07-29T07:44:09;9.15;;;5.30;;
66751;SDS011;53663;42.676;23.238;2022-07-29T07:46:34;7.53;;;4.65;;
66751;SDS011;53663;42.676;23.238;2022-07-29T07:49:00;8.90;;;5.00;;
66751;SDS011;53663;42.676;23.238;2022-07-29T07:51:25;8.52;;;4.85;;
66751;SDS011;53663;42.676;23.238;2022-07-29T07:53:51;9.07;;;4.85;;
66751;SDS011;53663;42.676;23.238;2022-07-29T07:56:17;6.53;;;4.25;;
66751;SDS011;53663;42.676;23.238;2022-07-29T07:58:43;9.23;;;4.53;;
66751;SDS011;53663;42.676;23.238;2022-07-29T08:01:08;8.77;;;4.57;;
66751;SDS011;53663;42.676;23.238;2022-07-29T08:03:34;9.70;;;4.60;;
66751;SDS011;53663;42.676;23.238;2022-07-29T08:06:00;5.20;;;4.50;;
66751;SDS011;53663;42.676;23.238;2022-07-29T08:08:26;5.78;;;4.45;;
66751;SDS011;53663;42.676;23.238;2022-07-29T08:10:52;12.18;;;4.20;;
66751;SDS011;53663;42.676;23.238;2022-07-29T08:13:18;11.75;;;5.28;;
66751;SDS011;53663;42.676;23.238;2022-07-29T08:15:44;11.25;;;4.38;;
66751;SDS011;53663;42.676;23.238;2022-07-29T08:18:11;7.82;;;4.53;;
66751;SDS011;53663;42.676;23.238;2022-07-29T08:20:38;9.40;;;4.32;;
66751;SDS011;53663;42.676;23.238;2022-07-29T08:23:04;9.20;;;4.30;;
66751;SDS011;53663;42.676;23.238;2022-07-29T08:25:34;12.27;;;4.78;;
66751;SDS011;53663;42.676;23.238;2022-07-29T08:28:00;10.82;;;4.40;;
66751;SDS011;53663;42.676;23.238;2022-07-29T08:30:26;7.13;;;4.15;;
66751;SDS011;53663;42.676;23.238;2022-07-29T08:32:52;7.47;;;3.83;;
66751;SDS011;53663;42.676;23.238;2022-07-29T08:35:18;8.05;;;4.00;;
66751;SDS011;53663;42.676;23.238;2022-07-29T08:37:44;8.60;;;4.18;;
66751;SDS011;53663;42.676;23.238;2022-07-29T08:40:10;7.97;;;3.50;;
66751;SDS011;53663;42.676;23.238;2022-07-29T08:42:36;7.45;;;4.10;;
66751;SDS011;53663;42.676;23.238;2022-07-29T08:45:02;6.88;;;3.40;;
66751;SDS011;53663;42.676;23.238;2022-07-29T08:47:29;10.43;;;4.00;;
66751;SDS011;53663;42.676;23.238;2022-07-29T08:49:55;8.57;;;4.20;;
66751;SDS011;53663;42.676;23.238;2022-07-29T08:52:20;8.00;;;4.18;;
66751;SDS011;53663;42.676;23.238;2022-07-29T08:54:49;13.15;;;4.07;;
66751;SDS011;53663;42.676;23.238;2022-07-29T08:57:15;8.75;;;3.58;;
66751;SDS011;53663;42.676;23.238;2022-07-29T08:59:42;10.98;;;4.15;;
66751;SDS011;53663;42.676;23.238;2022-07-29T09:02:15;5.65;;;3.75;;
66751;SDS011;53663;42.676;23.238;2022-07-29T09:04:47;8.82;;;4.07;;
66751;SDS011;53663;42.676;23.238;2022-07-29T09:07:16;11.68;;;3.90;;
66751;SDS011;53663;42.676;23.238;2022-07-29T09:09:43;6.70;;;3.40;;
66751;SDS011;53663;42.676;23.238;2022-07-29T09:12:10;12.20;;;4.10;;
66751;SDS011;53663;42.676;23.238;2022-07-29T09:14:39;5.78;;;3.70;;
66751;SDS011;53663;42.676;23.238;2022-07-29T09:17:06;10.85;;;3.53;;
66751;SDS011;53663;42.676;23.238;2022-07-29T09:19:33;5.57;;;3.70;;
66751;SDS011;53663;42.676;23.238;2022-07-29T09:22:00;7.72;;;3.50;;
66751;SDS011;53663;42.676;23.238;2022-07-29T09:24:41;7.55;;;3.45;;
66751;SDS011;53663;42.676;23.238;2022-07-29T09:27:24;8.77;;;3.50;;
66751;SDS011;53663;42.676;23.238;2022-07-29T09:30:00;6.53;;;3.67;;
66751;SDS011;53663;42.676;23.238;2022-07-29T09:32:26;5.07;;;3.40;;
66751;SDS011;53663;42.676;23.238;2022-07-29T09:37:48;7.20;;;3.70;;
66751;SDS011;53663;42.676;23.238;2022-07-29T09:42:41;8.05;;;5.47;;
66751;SDS011;53663;42.676;23.238;2022-07-29T09:45:07;7.00;;;3.60;;
66751;SDS011;53663;42.676;23.238;2022-07-29T09:47:44;12.30;;;3.92;;
66751;SDS011;53663;42.676;23.238;2022-07-29T09:50:12;6.93;;;3.50;;
66751;SDS011;53663;42.676;23.238;2022-07-29T09:52:45;7.65;;;3.67;;
66751;SDS011;53663;42.676;23.238;2022-07-29T09:55:14;7.68;;;3.90;;
66751;SDS011;53663;42.676;23.238;2022-07-29T09:57:41;5.80;;;3.42;;
66751;SDS011;53663;42.676;23.238;2022-07-29T10:00:08;6.28;;;3.45;;
66751;SDS011;53663;42.676;23.238;2022-07-29T10:02:39;6.93;;;3.60;;
66751;SDS011;53663;42.676;23.238;2022-07-29T10:05:06;6.40;;;3.55;;
66751;SDS011;53663;42.676;23.238;2022-07-29T10:07:43;7.22;;;3.58;;
66751;SDS011;53663;42.676;23.238;2022-07-29T10:10:18;15.25;;;3.78;;
66751;SDS011;53663;42.676;23.238;2022-07-29T10:12:51;13.50;;;6.72;;
66751;SDS011;53663;42.676;23.238;2022-07-29T10:15:21;8.63;;;4.70;;
66751;SDS011;53663;42.676;23.238;2022-07-29T10:17:52;6.03;;;3.55;;
66751;SDS011;53663;42.676;23.238;2022-07-29T10:20:19;6.32;;;3.53;;
66751;SDS011;53663;42.676;23.238;2022-07-29T10:22:46;8.00;;;4.00;;
66751;SDS011;53663;42.676;23.238;2022-07-29T10:25:13;5.22;;;3.90;;
66751;SDS011;53663;42.676;23.238;2022-07-29T10:27:40;5.88;;;4.05;;
66751;SDS011;53663;42.676;23.238;2022-07-29T10:30:06;8.85;;;4.10;;
66751;SDS011;53663;42.676;23.238;2022-07-29T10:35:47;7.05;;;4.15;;
66751;SDS011;53663;42.676;23.238;2022-07-29T10:44:04;7.65;;;4.03;;
66751;SDS011;53663;42.676;23.238;2022-07-29T10:46:35;6.07;;;4.55;;
66751;SDS011;53663;42.676;23.238;2022-07-29T10:54:19;8.55;;;4.22;;
66751;SDS011;53663;42.676;23.238;2022-07-29T10:57:14;8.30;;;4.05;;
66751;SDS011;53663;42.676;23.238;2022-07-29T10:59:48;7.47;;;3.97;;
66751;SDS011;53663;42.676;23.238;2022-07-29T11:05:00;5.70;;;3.80;;
66751;SDS011;53663;42.676;23.238;2022-07-29T11:07:26;5.85;;;4.30;;
66751;SDS011;53663;42.676;23.238;2022-07-29T11:15:07;5.15;;;4.20;;
66751;SDS011;53663;42.676;23.238;2022-07-29T11:20:35;4.63;;;3.70;;
66751;SDS011;53663;42.676;23.238;2022-07-29T11:23:21;5.60;;;3.97;;
66751;SDS011;53663;42.676;23.238;2022-07-29T11:29:20;6.43;;;4.15;;
66751;SDS011;53663;42.676;23.238;2022-07-29T11:39:32;7.20;;;4.38;;
66751;SDS011;53663;42.676;23.238;2022-07-29T11:42:36;4.13;;;3.70;;
66751;SDS011;53663;42.676;23.238;2022-07-29T11:44:57;5.70;;;4.15;;
66751;SDS011;53663;42.676;23.238;2022-07-29T11:47:27;10.15;;;4.50;;
66751;SDS011;53663;42.676;23.238;2022-07-29T11:49:55;5.32;;;3.95;;
66751;SDS011;53663;42.676;23.238;2022-07-29T11:52:22;6.53;;;4.32;;
66751;SDS011;53663;42.676;23.238;2022-07-29T11:54:49;12.20;;;4.30;;
66751;SDS011;53663;42.676;23.238;2022-07-29T11:57:19;4.85;;;3.85;;
66751;SDS011;53663;42.676;23.238;2022-07-29T11:59:46;7.20;;;4.47;;
66751;SDS011;53663;42.676;23.238;2022-07-29T12:02:13;9.80;;;4.63;;
66751;SDS011;53663;42.676;23.238;2022-07-29T12:04:52;8.50;;;4.22;;
66751;SDS011;53663;42.676;23.238;2022-07-29T12:07:28;6.03;;;4.40;;
66751;SDS011;53663;42.676;23.238;2022-07-29T12:09:58;8.77;;;4.55;;
66751;SDS011;53663;42.676;23.238;2022-07-29T12:12:24;8.25;;;4.18;;
66751;SDS011;53663;42.676;23.238;2022-07-29T12:14:49;9.77;;;4.45;;
66751;SDS011;53663;42.676;23.238;2022-07-29T12:20:10;4.97;;;4.28;;
66751;SDS011;53663;42.676;23.238;2022-07-29T12:22:36;5.90;;;3.85;;
66751;SDS011;53663;42.676;23.238;2022-07-29T12:25:06;9.07;;;4.38;;
66751;SDS011;53663;42.676;23.238;2022-07-29T12:27:34;5.32;;;4.28;;
66751;SDS011;53663;42.676;23.238;2022-07-29T12:30:09;6.97;;;4.22;;
66751;SDS011;53663;42.676;23.238;2022-07-29T12:32:38;5.65;;;3.92;;
66751;SDS011;53663;42.676;23.238;2022-07-29T12:35:15;8.20;;;4.25;;
66751;SDS011;53663;42.676;23.238;2022-07-29T12:37:44;8.18;;;4.70;;
66751;SDS011;53663;42.676;23.238;2022-07-29T12:40:16;4.88;;;3.92;;
66751;SDS011;53663;42.676;23.238;2022-07-29T12:45:34;8.50;;;4.10;;
66751;SDS011;53663;42.676;23.238;2022-07-29T12:48:01;5.57;;;4.57;;
66751;SDS011;53663;42.676;23.238;2022-07-29T12:50:26;8.27;;;4.50;;
66751;SDS011;53663;42.676;23.238;2022-07-29T12:52:52;7.32;;;4.50;;
66751;SDS011;53663;42.676;23.238;2022-07-29T12:58:03;6.63;;;4.45;;
66751;SDS011;53663;42.676;23.238;2022-07-29T13:00:29;7.35;;;3.95;;
66751;SDS011;53663;42.676;23.238;2022-07-29T13:02:55;4.95;;;3.70;;
66751;SDS011;53663;42.676;23.238;2022-07-29T13:05:22;7.60;;;4.35;;
66751;SDS011;53663;42.676;23.238;2022-07-29T13:07:49;6.93;;;3.80;;
66751;SDS011;53663;42.676;23.238;2022-07-29T13:10:19;6.75;;;3.75;;
66751;SDS011;53663;42.676;23.238;2022-07-29T13:13:08;5.60;;;4.18;;
66751;SDS011;53663;42.676;23.238;2022-07-29T13:15:35;7.07;;;4.20;;
66751;SDS011;53663;42.676;23.238;2022-07-29T13:18:41;10.35;;;3.85;;
66751;SDS011;53663;42.676;23.238;2022-07-29T13:21:12;8.38;;;4.57;;
66751;SDS011;53663;42.676;23.238;2022-07-29T13:23:40;7.97;;;4.30;;
66751;SDS011;53663;42.676;23.238;2022-07-29T13:26:10;4.95;;;4.10;;
66751;SDS011;53663;42.676;23.238;2022-07-29T13:28:37;5.60;;;4.20;;
66751;SDS011;53663;42.676;23.238;2022-07-29T13:31:03;5.22;;;4.40;;
66751;SDS011;53663;42.676;23.238;2022-07-29T13:33:30;7.00;;;4.47;;
66751;SDS011;53663;42.676;23.238;2022-07-29T13:35:55;8.15;;;4.43;;
66751;SDS011;53663;42.676;23.238;2022-07-29T13:38:21;7.47;;;4.55;;
66751;SDS011;53663;42.676;23.238;2022-07-29T13:40:47;7.15;;;4.38;;
66751;SDS011;53663;42.676;23.238;2022-07-29T13:43:13;7.07;;;4.15;;
66751;SDS011;53663;42.676;23.238;2022-07-29T13:45:38;7.25;;;4.60;;
66751;SDS011;53663;42.676;23.238;2022-07-29T13:48:04;8.60;;;4.25;;
66751;SDS011;53663;42.676;23.238;2022-07-29T13:50:31;8.75;;;4.18;;
66751;SDS011;53663;42.676;23.238;2022-07-29T13:52:57;7.95;;;4.30;;
66751;SDS011;53663;42.676;23.238;2022-07-29T13:55:23;6.88;;;4.50;;
66751;SDS011;53663;42.676;23.238;2022-07-29T13:57:48;9.65;;;4.68;;
66751;SDS011;53663;42.676;23.238;2022-07-29T14:00:14;4.20;;;3.80;;
66751;SDS011;53663;42.676;23.238;2022-07-29T14:02:41;8.65;;;4.20;;
66751;SDS011;53663;42.676;23.238;2022-07-29T14:05:07;5.85;;;4.03;;
66751;SDS011;53663;42.676;23.238;2022-07-29T14:07:33;6.55;;;4.07;;
66751;SDS011;53663;42.676;23.238;2022-07-29T14:09:58;9.98;;;4.13;;
66751;SDS011;53663;42.676;23.238;2022-07-29T14:12:24;5.78;;;4.10;;
66751;SDS011;53663;42.676;23.238;2022-07-29T14:14:50;5.65;;;4.10;;
66751;SDS011;53663;42.676;23.238;2022-07-29T14:17:15;5.10;;;4.00;;
66751;SDS011;53663;42.676;23.238;2022-07-29T14:19:41;5.13;;;3.90;;
66751;SDS011;53663;42.676;23.238;2022-07-29T14:22:07;6.35;;;3.92;;
66751;SDS011;53663;42.676;23.238;2022-07-29T14:24:33;5.00;;;4.10;;
66751;SDS011;53663;42.676;23.238;2022-07-29T14:26:59;5.57;;;4.35;;
66751;SDS011;53663;42.676;23.238;2022-07-29T14:29:25;6.13;;;4.05;;
66751;SDS011;53663;42.676;23.238;2022-07-29T14:31:51;6.07;;;4.22;;
66751;SDS011;53663;42.676;23.238;2022-07-29T14:34:16;6.32;;;3.97;;
66751;SDS011;53663;42.676;23.238;2022-07-29T14:36:42;7.88;;;4.20;;
66751;SDS011;53663;42.676;23.238;2022-07-29T14:39:07;5.35;;;3.97;;
66751;SDS011;53663;42.676;23.238;2022-07-29T14:41:33;5.70;;;4.03;;
66751;SDS011;53663;42.676;23.238;2022-07-29T14:43:59;7.65;;;4.28;;
66751;SDS011;53663;42.676;23.238;2022-07-29T14:46:26;7.50;;;4.30;;
66751;SDS011;53663;42.676;23.238;2022-07-29T14:48:52;5.28;;;3.67;;
66751;SDS011;53663;42.676;23.238;2022-07-29T14:51:18;7.13;;;4.45;;
66751;SDS011;53663;42.676;23.238;2022-07-29T14:53:44;6.32;;;4.32;;
66751;SDS011;53663;42.676;23.238;2022-07-29T14:56:10;6.38;;;4.18;;
66751;SDS011;53663;42.676;23.238;2022-07-29T14:58:35;7.28;;;4.07;;
66751;SDS011;53663;42.676;23.238;2022-07-29T15:01:01;8.65;;;4.47;;
66751;SDS011;53663;42.676;23.238;2022-07-29T15:03:27;7.20;;;4.07;;
66751;SDS011;53663;42.676;23.238;2022-07-29T15:05:53;5.47;;;4.32;;
66751;SDS011;53663;42.676;23.238;2022-07-29T15:08:19;5.15;;;4.18;;
66751;SDS011;53663;42.676;23.238;2022-07-29T15:10:45;6.53;;;4.35;;
66751;SDS011;53663;42.676;23.238;2022-07-29T15:13:10;5.35;;;3.80;;
66751;SDS011;53663;42.676;23.238;2022-07-29T15:15:36;6.07;;;4.22;;
66751;SDS011;53663;42.676;23.238;2022-07-29T15:18:01;6.22;;;3.88;;
66751;SDS011;53663;42.676;23.238;2022-07-29T15:20:27;7.80;;;4.78;;
66751;SDS011;53663;42.676;23.238;2022-07-29T15:22:53;5.25;;;4.68;;
66751;SDS011;53663;42.676;23.238;2022-07-29T15:25:21;5.18;;;4.53;;
66751;SDS011;53663;42.676;23.238;2022-07-29T15:27:47;5.88;;;4.70;;
66751;SDS011;53663;42.676;23.238;2022-07-29T15:30:12;8.07;;;4.38;;
66751;SDS011;53663;42.676;23.238;2022-07-29T15:32:40;6.25;;;4.35;;